EPRZ/RZE METAR and TAF weather

Enter ICAO airport designator
Station Type Date Time Source
EPRZ METAR 2022/06/27 18:00 UTC NOAA

EPRZ 271800Z 09008KT CAVOK 26/15 Q1018


Station Type Date Time Source
EPRZ Decoded METAR 2022/06/27 18:00 UTC NOAA

Rzeszow-Jasionka, Poland (EPRZ) 50-06N 022-03E 202M
Jun 27, 2022 - 02:00 PM EDT / 2022.06.27 1800 UTC
Wind: from the E (090 degrees) at 9 MPH (8 KT):0
Visibility: greater than 7 mile(s):0
Temperature: 78 F (26 C)
Dew Point: 59 F (15 C)
Relative Humidity: 50%
Pressure (altimeter): 30.06 in. Hg (1018 hPa)
ob: EPRZ 271800Z 09008KT CAVOK 26/15 Q1018
cycle: 18

Station Type Date Time Source
EPRZ TAF 2022/06/27 18:33 UTC NOAA

TAF EPRZ 271730Z 2718/2818 10010KT CAVOK
BECMG 2815/2818 29012KT
TEMPO 2815/2818 VRB15G30KT 2500 TSRA BKN020CB

Example: see airport list